Time,TemperatureC,DewpointC,PressurehPa,WindDirection,WindDirectionDegrees,WindSpeedKMH,WindSpeedGustKMH,Humidity,HourlyPrecipMM,Conditions,Clouds,dailyrainMM,SolarRadiationWatts/m^2,UVIndex,SoftwareType,DateUTC
2021-06-12 00:03:53,18.6,15.1,1020.5,NW,312,1.7,4.8,80,0.0,,,0.0,0,0,n/a,2021-06-11T22:03:53Z
2021-06-12 00:05:02,18.6,15.1,1020.5,NW,313,3.6,3.2,80,0.0,,,0.0,0,0,n/a,2021-06-11T22:05:02Z
2021-06-12 00:14:47,18.4,15,1020.5,NW,314,3,3.2,80.8,0.0,,,0.0,0,0,n/a,2021-06-11T22:14:47Z
2021-06-12 00:19:51,18.2,15,1020.6,NW,314,4.4,3.2,81.5,0.0,,,0.0,0,0,n/a,2021-06-11T22:19:51Z
2021-06-12 00:24:55,18.1,15,1020.6,NW,314,3.5,4.8,82,0.0,,,0.0,0,0,n/a,2021-06-11T22:24:55Z
2021-06-12 00:29:59,18.1,15,1020.5,NW,314,3.6,3.2,82,0.0,,,0.0,0,0,n/a,2021-06-11T22:29:59Z
2021-06-12 00:34:51,18,14.9,1020.6,NW,314,3.6,3.2,82,0.0,,,0.0,0,0,n/a,2021-06-11T22:34:51Z
2021-06-12 00:39:55,18,14.9,1020.6,NW,315,2.4,3.2,82,0.0,,,0.0,0,0,n/a,2021-06-11T22:39:55Z
2021-06-12 00:44:55,17.9,15,1020.5,NW,315,0,0,83,0.0,,,0.0,0,0,n/a,2021-06-11T22:44:55Z
2021-06-12 00:49:58,17.7,14.8,1020.5,NW,315,0,3.2,83,0.0,,,0.0,0,0,n/a,2021-06-11T22:49:58Z
2021-06-12 00:54:50,17.6,14.8,1020.5,NW,315,0,0,83.9,0.0,,,0.0,0,0,n/a,2021-06-11T22:54:50Z
2021-06-12 00:59:52,17.7,14.8,1020.5,SW,222,0,0,83.4,0.0,,,0.0,0,0,n/a,2021-06-11T22:59:52Z
2021-06-12 01:03:55,18,14.9,1020.5,SW,223,0.6,0.2,82.2,0.0,,,0.0,0,0,n/a,2021-06-11T23:03:55Z
2021-06-12 01:08:56,18,14.9,1020.4,SW,223,1.8,4.8,82.1,0.0,,,0.0,0,0,n/a,2021-06-11T23:08:56Z
2021-06-12 01:13:53,18.4,14.9,1020.5,SW,236,2.1,0.3,80,0.0,,,0.0,0,0,n/a,2021-06-11T23:13:53Z
2021-06-12 01:19:59,18.5,14.9,1020.5,WSW,244,5.1,4.8,79.7,0.0,,,0.0,0,0,n/a,2021-06-11T23:19:59Z
2021-06-12 01:23:52,18.6,14.8,1020.4,SSW,213,5.6,1.8,79,0.0,,,0.0,0,0,n/a,2021-06-11T23:23:52Z
2021-06-12 01:29:59,18.6,14.8,1020.4,SW,215,8.1,8,79,0.0,,,0.0,0,0,n/a,2021-06-11T23:29:59Z
2021-06-12 01:34:01,18.6,14.8,1020.4,West,264,8.5,3.1,79,0.0,,,0.0,0,0,n/a,2021-06-11T23:34:01Z
2021-06-12 01:39:51,18.5,14.8,1020.4,West,265,11.6,12.9,79,0.0,,,0.0,0,0,n/a,2021-06-11T23:39:51Z
2021-06-12 01:44:58,18.5,14.7,1020.4,WSW,254,5.6,2.7,79,0.0,,,0.0,0,0,n/a,2021-06-11T23:44:58Z
2021-06-12 01:49:50,18.3,14.6,1020.4,WSW,250,3.6,8,79,0.0,,,0.0,0,0,n/a,2021-06-11T23:49:50Z
2021-06-12 01:54:53,18.2,14.5,1020.3,West,269,5.1,4.8,79,0.0,,,0.0,0,0,n/a,2021-06-11T23:54:53Z
2021-06-12 01:59:56,18.2,14.5,1020.2,West,271,5.5,4.8,79,0.0,,,0.0,0,0,n/a,2021-06-11T23:59:56Z
2021-06-12 02:04:56,18.1,14.4,1020.2,West,270,5.4,4.8,79,0.0,,,0.0,0,0,n/a,2021-06-12T00:04:56Z
2021-06-12 02:08:56,18,14.2,1020.3,WNW,285,5.4,4.8,79,0.0,,,0.0,0,0,n/a,2021-06-12T00:08:56Z
2021-06-12 02:12:18,18,14.4,1020.3,WNW,296,5.4,4.8,79.9,0.0,,,0.0,0,0,n/a,2021-06-12T00:12:18Z
2021-06-12 02:19:51,17.9,14.4,1020.2,SW,233,6,3.1,80,0.0,,,0.0,0,0,n/a,2021-06-12T00:19:51Z
2021-06-12 02:20:00,17.9,14.4,1020.2,West,263,3.2,12.9,80,0.0,,,0.0,0,0,n/a,2021-06-12T00:20:00Z
2021-06-12 02:28:59,17.7,14.5,1020.1,WSW,237,5.8,3.1,81,0.0,,,0.0,0,0,n/a,2021-06-12T00:28:59Z
2021-06-12 02:34:56,17.7,14.4,1020.1,WSW,238,5.4,6.4,81,0.0,,,0.0,0,0,n/a,2021-06-12T00:34:56Z
2021-06-12 02:38:58,17.7,14.4,1020.1,WSW,238,5.3,4.8,81,0.0,,,0.0,0,0,n/a,2021-06-12T00:38:58Z
2021-06-12 02:44:52,17.7,14.4,1020.1,SW,228,7,4.8,81,0.0,,,0.0,0,0,n/a,2021-06-12T00:44:52Z
2021-06-12 02:49:56,17.6,14.4,1020.2,SW,224,7.1,8,81.7,0.0,,,0.0,0,0,n/a,2021-06-12T00:49:56Z
2021-06-12 02:54:57,17.5,14.4,1020.1,SW,228,7.4,3.9,82,0.0,,,0.0,0,0,n/a,2021-06-12T00:54:57Z
2021-06-12 02:58:57,17.4,14.3,1020.1,WSW,243,10.3,8,82,0.0,,,0.0,0,0,n/a,2021-06-12T00:58:57Z
2021-06-12 03:03:09,17.4,14.3,1020.1,SW,232,7.2,11.3,82,0.0,,,0.0,0,0,n/a,2021-06-12T01:03:09Z
2021-06-12 03:09:52,17.3,14.2,1020.1,WSW,248,10.9,8,82,0.0,,,0.0,0,0,n/a,2021-06-12T01:09:52Z
2021-06-12 03:14:58,17.2,14.1,1020.1,WSW,241,12.5,12.9,82,0.0,,,0.0,0,0,n/a,2021-06-12T01:14:58Z
2021-06-12 03:18:59,17.2,14.1,1020.1,WSW,245,12.6,12.9,82,0.0,,,0.0,0,0,n/a,2021-06-12T01:18:59Z
2021-06-12 03:24:53,17.1,14.2,1020.1,SW,236,12.6,12.9,82.9,0.0,,,0.0,0,0,n/a,2021-06-12T01:24:53Z
2021-06-12 03:29:56,17.1,14.2,1020.2,SSW,199,9.1,9.7,83,0.0,,,0.0,0,0,n/a,2021-06-12T01:29:56Z
2021-06-12 03:34:51,17.1,14.2,1020.1,West,264,9,9.7,82.9,0.0,,,0.0,0,0,n/a,2021-06-12T01:34:51Z
2021-06-12 03:39:58,17,14.1,1020.1,WSW,252,6.9,4.8,83,0.0,,,0.0,0,0,n/a,2021-06-12T01:39:58Z
2021-06-12 03:44:50,16.9,14,1020.1,WSW,238,7.1,8,83,0.0,,,0.0,0,0,n/a,2021-06-12T01:44:50Z
2021-06-12 03:49:55,16.9,14,1020.1,WSW,240,12.4,8,83,0.0,,,0.0,0,0,n/a,2021-06-12T01:49:55Z
2021-06-12 03:54:58,16.8,13.9,1020.2,SW,219,14.2,14.5,83,0.0,,,0.0,0,0,n/a,2021-06-12T01:54:58Z
2021-06-12 03:58:59,16.7,13.8,1020.2,WSW,238,14.3,14.5,83,0.0,,,0.0,0,0,n/a,2021-06-12T01:58:59Z
2021-06-12 04:03:59,16.7,13.8,1020.2,WSW,254,14.1,14.5,83,0.0,,,0.0,0,0,n/a,2021-06-12T02:03:59Z
2021-06-12 04:09:54,16.6,13.7,1020.3,SW,219,10.8,14.5,83,0.0,,,0.0,0,0,n/a,2021-06-12T02:09:54Z
2021-06-12 04:14:59,16.5,13.6,1020.3,SSW,194,11.9,3.4,83,0.0,,,0.0,0,0,n/a,2021-06-12T02:14:59Z
2021-06-12 04:18:59,16.4,13.6,1020.3,SSW,198,12.6,14.5,83,0.0,,,0.0,0,0,n/a,2021-06-12T02:18:59Z
2021-06-12 04:24:54,16.4,13.5,1020.2,SW,231,12.5,14.5,83,0.0,,,0.0,0,0,n/a,2021-06-12T02:24:54Z
2021-06-12 04:29:54,16.4,13.5,1020.2,WSW,245,14.4,14.5,83,0.0,,,0.0,0,0,n/a,2021-06-12T02:29:54Z
2021-06-12 04:34:50,16.4,13.6,1020.4,SW,232,14.1,14.5,83,0.0,,,0.0,0,0,n/a,2021-06-12T02:34:50Z
2021-06-12 04:39:55,16.4,13.6,1020.5,SSW,212,14.5,14.5,83,0.0,,,0.0,0,0,n/a,2021-06-12T02:39:55Z
2021-06-12 04:44:48,16.5,13.6,1020.5,West,260,7.2,14.5,83,0.0,,,0.0,0,0,n/a,2021-06-12T02:44:48Z
2021-06-12 04:49:57,16.5,13.6,1020.5,SW,236,5.5,4.8,83,0.0,,,0.0,0,0,n/a,2021-06-12T02:49:57Z
2021-06-12 04:54:48,16.5,13.6,1020.5,West,263,5.5,4.8,83,0.0,,,0.0,0,0,n/a,2021-06-12T02:54:48Z
2021-06-12 04:59:49,16.5,13.7,1020.5,WSW,239,9.4,4.8,83.6,0.0,,,0.0,0,0,n/a,2021-06-12T02:59:49Z
2021-06-12 05:04:53,16.5,13.6,1020.4,WSW,239,8.4,12.9,83.1,0.0,,,0.0,0,0,n/a,2021-06-12T03:04:53Z
2021-06-12 05:09:59,16.5,13.8,1020.4,West,262,8.9,9.7,83.9,0.0,,,0.0,0,0,n/a,2021-06-12T03:09:59Z
2021-06-12 05:14:54,16.5,13.8,1020.2,West,263,10.2,5.1,84,0.0,,,0.0,0,0,n/a,2021-06-12T03:14:54Z
2021-06-12 05:19:57,16.6,13.8,1020.2,West,267,9,11.3,84,0.0,,,0.0,0,0,n/a,2021-06-12T03:19:57Z
2021-06-12 05:22:58,16.6,13.7,1020.3,SSW,206,9.3,4,83,0.0,,,0.0,0,0,n/a,2021-06-12T03:22:58Z
2021-06-12 05:25:02,16.6,13.7,1020.2,SSW,202,9.1,9.7,83,0.0,,,0.0,0,0,n/a,2021-06-12T03:25:02Z
2021-06-12 05:34:58,16.4,13.7,1020.2,SSW,203,7,2.7,83.9,0.0,,,0.0,0,0,n/a,2021-06-12T03:34:58Z
2021-06-12 05:35:00,16.5,13.6,1020.2,SSW,206,1.6,9.7,83,0.0,,,0.0,0,0,n/a,2021-06-12T03:35:00Z
2021-06-12 05:44:56,16.4,13.7,1020.2,SSW,204,4.6,1.8,84,0.0,,,0.0,7,0,n/a,2021-06-12T03:44:56Z
2021-06-12 05:49:56,16.3,13.6,1020.2,SSW,204,5,6.4,84,0.0,,,0.0,11,0,n/a,2021-06-12T03:49:56Z
2021-06-12 05:53:59,16.3,13.6,1020.2,WSW,239,6.2,1.1,84,0.0,,,0.0,12,0,n/a,2021-06-12T03:53:59Z
2021-06-12 05:59:52,16.2,13.5,1020.2,SSW,193,5.1,6.4,84,0.0,,,0.0,0,0,n/a,2021-06-12T03:59:52Z
2021-06-12 06:04:56,16.2,13.5,1020.4,SW,215,6.5,4.8,84,0.0,,,0.0,16,0,n/a,2021-06-12T04:04:56Z
2021-06-12 06:09:59,16.2,13.4,1020.4,WSW,258,5.5,6.4,84,0.0,,,0.0,18,0,n/a,2021-06-12T04:09:59Z
2021-06-12 06:10:00,16.2,13.5,1020.3,SW,227,1.6,4.8,84,0.0,,,0.0,18,0,n/a,2021-06-12T04:10:00Z
2021-06-12 06:19:59,16.1,13.5,1020.6,SW,232,11.7,3.7,84.4,0.0,,,0.0,14,0,n/a,2021-06-12T04:19:59Z
2021-06-12 06:20:00,16.2,13.4,1020.5,SW,227,1.6,12.9,84,0.0,,,0.0,14,0,n/a,2021-06-12T04:20:00Z
2021-06-12 06:28:57,16.2,13.5,1020.6,WSW,240,13.3,5,84,0.0,,,0.0,11,0,n/a,2021-06-12T04:28:57Z
2021-06-12 06:34:59,16.2,13.5,1020.6,WSW,241,11.6,4.3,84,0.0,,,0.0,11,0,n/a,2021-06-12T04:34:59Z
2021-06-12 06:39:57,16.3,13.6,1020.6,SSW,195,12.3,14.5,84,0.0,,,0.0,11,0,n/a,2021-06-12T04:39:57Z
2021-06-12 06:43:57,16.3,13.6,1020.6,WSW,250,13,4.5,84,0.0,,,0.0,11,0,n/a,2021-06-12T04:43:57Z
2021-06-12 06:48:58,16.3,13.6,1020.7,SW,230,12.5,12.9,84,0.0,,,0.0,11,0,n/a,2021-06-12T04:48:58Z
2021-06-12 06:53:56,16.2,13.4,1020.7,SSW,198,10.3,4.2,84,0.0,,,0.0,12,0,n/a,2021-06-12T04:53:56Z
2021-06-12 06:58:59,16.2,13.4,1020.7,SSW,198,9.1,12.9,84,0.0,,,0.0,14,0,n/a,2021-06-12T04:58:59Z
2021-06-12 07:04:59,16.2,13.4,1020.8,SSW,213,7.7,9.7,84,0.0,,,0.0,14,0,n/a,2021-06-12T05:04:59Z
2021-06-12 07:05:00,16.2,13.4,1020.7,SSW,211,3.2,8,84,0.0,,,0.0,12,0,n/a,2021-06-12T05:05:00Z
2021-06-12 07:14:55,16.2,13.5,1020.9,SSW,199,8.4,3.2,84,0.0,,,0.0,19,0,n/a,2021-06-12T05:14:55Z
2021-06-12 07:15:00,16.2,13.5,1020.8,SSW,208,3.2,9.7,84,0.0,,,0.0,19,0,n/a,2021-06-12T05:15:00Z
2021-06-12 07:22:56,16.2,13.5,1020.9,SW,215,9.3,3.9,84,0.0,,,0.0,19,0,n/a,2021-06-12T05:22:56Z
2021-06-12 07:28:56,16.3,13.5,1021.0,SSW,200,9.4,12.9,84,0.0,,,0.0,19,0,n/a,2021-06-12T05:28:56Z
2021-06-12 07:34:51,16.3,13.6,1021.1,SSW,204,7.2,8,84,0.0,,,0.0,16,0,n/a,2021-06-12T05:34:51Z
2021-06-12 07:39:55,16.3,13.6,1021.0,SSW,194,8.5,8,84,0.0,,,0.0,19,0,n/a,2021-06-12T05:39:55Z
2021-06-12 07:43:58,16.4,13.8,1021.0,SW,223,7.4,3.9,85,0.0,,,0.0,19,0,n/a,2021-06-12T05:43:58Z
2021-06-12 07:49:00,16.4,13.8,1021.0,SSW,199,9,9.7,84.9,0.0,,,0.0,21,0,n/a,2021-06-12T05:49:00Z
2021-06-12 07:53:53,16.4,13.7,1021.1,SSW,203,9.3,5,84,0.0,,,0.0,25,0,n/a,2021-06-12T05:53:53Z
2021-06-12 07:59:59,16.4,13.8,1021.2,SW,214,9,9.7,84.7,0.0,,,0.0,28,0,n/a,2021-06-12T05:59:59Z
2021-06-12 08:04:50,16.4,13.7,1021.2,SSW,198,7.8,9.7,84,0.0,,,0.0,30,0,n/a,2021-06-12T06:04:50Z
2021-06-12 08:09:49,16.4,13.9,1021.2,WSW,256,10.4,8,85,0.0,,,0.0,28,0,n/a,2021-06-12T06:09:49Z
2021-06-12 08:10:01,16.4,13.7,1021.2,SSW,212,3.2,11.3,84,0.0,,,0.0,28,0,n/a,2021-06-12T06:10:01Z
2021-06-12 08:19:55,16.5,14,1021.4,SSW,202,6,3.2,85,0.0,,,0.0,32,0,n/a,2021-06-12T06:19:55Z
2021-06-12 08:20:02,16.5,13.9,1021.3,SSW,209,3.2,8,85,0.0,,,0.0,26,0,n/a,2021-06-12T06:20:02Z
2021-06-12 08:29:54,16.5,14.2,1021.4,SSW,196,8.2,3.7,86,0.0,,,0.0,30,0,n/a,2021-06-12T06:29:54Z
2021-06-12 08:33:55,16.6,14.2,1021.3,WSW,247,11.1,4.2,86,0.0,,,0.0,37,0,n/a,2021-06-12T06:33:55Z
2021-06-12 08:39:56,16.5,14.2,1021.4,SW,225,10.8,11.3,86,0.0,,,0.0,39,0,n/a,2021-06-12T06:39:56Z
2021-06-12 08:43:55,16.5,14.2,1021.3,SW,218,8.3,2.9,86,0.0,,,0.0,40,0,n/a,2021-06-12T06:43:55Z
2021-06-12 08:49:56,16.6,14.2,1021.3,WSW,237,7.2,11.3,86,0.0,,,0.0,56,0,n/a,2021-06-12T06:49:56Z
2021-06-12 08:54:52,16.8,14.3,1021.4,WSW,254,10.3,1.9,85.4,0.0,,,0.0,51,0,n/a,2021-06-12T06:54:52Z
2021-06-12 08:58:59,16.8,14.3,1021.4,WSW,240,8.5,12.9,85,0.0,,,0.0,69,0.5,n/a,2021-06-12T06:58:59Z
2021-06-12 09:03:58,16.9,14.4,1021.4,SW,227,9.5,16.1,85,0.0,,,0.0,83,0.5,n/a,2021-06-12T07:03:58Z
2021-06-12 09:09:02,17,14.4,1021.4,WSW,243,9,9.7,85,0.0,,,0.0,65,0.5,n/a,2021-06-12T07:09:02Z
2021-06-12 09:14:55,17.2,14.4,1021.6,WSW,247,10.2,3.7,84,0.0,,,0.0,47,0,n/a,2021-06-12T07:14:55Z
2021-06-12 09:19:57,17.2,14.4,1021.6,SSW,202,11.7,11.3,84,0.0,,,0.0,65,0.5,n/a,2021-06-12T07:19:57Z
2021-06-12 09:23:56,17.2,14.4,1021.7,SW,221,8.6,3.9,84,0.0,,,0.0,62,0.5,n/a,2021-06-12T07:23:56Z
2021-06-12 09:28:05,17.2,14.4,1021.6,WSW,254,9,12.9,84,0.0,,,0.0,67,0.5,n/a,2021-06-12T07:28:05Z
2021-06-12 09:34:57,17.3,14.5,1021.7,WSW,237,9.3,4.2,84,0.0,,,0.0,144,0.9,n/a,2021-06-12T07:34:57Z
2021-06-12 09:35:00,17.2,14.5,1021.6,WSW,244,3.2,9.7,84,0.0,,,0.0,144,0.9,n/a,2021-06-12T07:35:00Z
2021-06-12 09:44:59,17.7,14.6,1021.6,SW,217,11.6,3.5,82.4,0.0,,,0.0,265,1.9,n/a,2021-06-12T07:44:59Z
2021-06-12 09:45:00,17.5,14.6,1021.6,SW,233,3.2,14.5,83,0.0,,,0.0,265,1.9,n/a,2021-06-12T07:45:00Z
2021-06-12 09:53:52,18.1,14.8,1021.6,SSW,207,10.3,4.8,81,0.0,,,0.0,318,2.1,n/a,2021-06-12T07:53:52Z
2021-06-12 09:58:04,18.3,14.8,1021.6,South,188,9.1,11.3,80.1,0.0,,,0.0,323,2,n/a,2021-06-12T07:58:04Z
2021-06-12 10:04:53,18.6,14.8,1021.7,WNW,301,8.2,14.5,78.4,0.0,,,0.0,366,2.2,n/a,2021-06-12T08:04:53Z
2021-06-12 10:09:52,18.6,14.7,1021.7,NNW,333,8.6,11.3,78.1,0.0,,,0.0,308,2.1,n/a,2021-06-12T08:09:52Z
2021-06-12 10:14:59,18.7,14.4,1021.7,West,272,14.8,7.7,76.1,0.0,,,0.0,295,1.8,n/a,2021-06-12T08:14:59Z
2021-06-12 10:19:55,18.6,14.3,1021.7,WNW,290,14.1,14.5,76.1,0.0,,,0.0,199,1.3,n/a,2021-06-12T08:19:55Z
2021-06-12 10:23:55,18.5,14.2,1021.8,NW,320,13.5,7.7,76,0.0,,,0.0,149,1.1,n/a,2021-06-12T08:23:55Z
2021-06-12 10:29:57,18.5,14.2,1021.7,NNW,340,11.1,14.5,76,0.0,,,0.0,192,1.4,n/a,2021-06-12T08:29:57Z
2021-06-12 10:34:52,18.7,14.1,1021.8,SE,139,15.3,4.8,74.4,0.0,,,0.0,258,1.9,n/a,2021-06-12T08:34:52Z
2021-06-12 10:39:53,18.8,13.9,1021.9,NE,38,15.9,16.1,73.1,0.0,,,0.0,204,1.4,n/a,2021-06-12T08:39:53Z
2021-06-12 10:43:54,18.6,13.6,1021.9,North,351,16.7,5.5,72.6,0.0,,,0.0,181,1.4,n/a,2021-06-12T08:43:54Z
2021-06-12 10:45:34,18.6,13.6,1021.9,SSW,209,16.3,16.1,73,0.0,,,0.0,192,1.5,n/a,2021-06-12T08:45:34Z
2021-06-12 10:53:57,18.5,13.5,1021.9,NW,309,14.8,6.9,72.9,0.0,,,0.0,216,1.7,n/a,2021-06-12T08:53:57Z
2021-06-12 10:58:59,18.5,13.8,1022.0,WSW,253,14.3,16.1,73.9,0.0,,,0.0,160,1.3,n/a,2021-06-12T08:58:59Z
2021-06-12 11:04:57,18.8,13.9,1022.0,NNW,342,11.8,14.5,73.2,0.0,,,0.0,462,3.7,n/a,2021-06-12T09:04:57Z
2021-06-12 11:05:04,18.7,13.9,1022.0,NW,311,4.8,11.3,74,0.0,,,0.0,462,3.7,n/a,2021-06-12T09:05:04Z
2021-06-12 11:10:01,18.7,13.8,1022.0,NW,317,4.8,11.3,73,0.0,,,0.0,422,3.3,n/a,2021-06-12T09:10:01Z
2021-06-12 11:18:44,19.5,13.6,1022.1,WSW,252,11.1,4.2,69.1,0.0,,,0.0,694,4.4,n/a,2021-06-12T09:18:44Z
2021-06-12 11:23:55,19.9,13.3,1022.1,SSE,158,7.4,3.4,66,0.0,,,0.0,578,4.3,n/a,2021-06-12T09:23:55Z
2021-06-12 11:28:58,20.1,13.6,1022.2,South,181,5.8,11.3,66,0.0,,,0.0,480,4,n/a,2021-06-12T09:28:58Z
2021-06-12 11:34:40,20.2,13.4,1022.3,SW,221,6.4,4,65.3,0.0,,,0.0,371,2.9,n/a,2021-06-12T09:34:40Z
2021-06-12 11:35:00,20.1,13.5,1022.2,South,185,3.2,8,66,0.0,,,0.0,308,2.9,n/a,2021-06-12T09:35:00Z
2021-06-12 11:44:52,19.8,12.6,1022.3,NNE,12,11.1,3.7,63,0.0,,,0.0,443,3.9,n/a,2021-06-12T09:44:52Z
2021-06-12 11:49:50,20.3,12.5,1022.4,North,4,11.2,4.3,61.1,0.0,,,0.0,592,4.3,n/a,2021-06-12T09:49:50Z
2021-06-12 11:50:00,20.1,12.8,1022.3,NNW,327,3.2,12.9,63,0.0,,,0.0,531,4.3,n/a,2021-06-12T09:50:00Z
2021-06-12 11:59:58,20.3,12.5,1022.4,NW,321,11.1,6,61,0.0,,,0.0,752,5.3,n/a,2021-06-12T09:59:58Z
2021-06-12 12:00:00,20.2,12.7,1022.4,NW,313,4.8,12.9,62,0.0,,,0.0,752,5.3,n/a,2021-06-12T10:00:00Z
2021-06-12 12:08:49,20.6,12.6,1022.5,WNW,297,11.7,6.3,60,0.0,,,0.0,686,4.2,n/a,2021-06-12T10:08:49Z
2021-06-12 12:14:41,20.3,12.5,1022.6,NNE,13,15.6,6.9,60.9,0.0,,,0.0,383,3.3,n/a,2021-06-12T10:14:41Z
2021-06-12 12:18:57,20.2,12.3,1022.7,North,6,18.5,7.9,60.6,0.0,,,0.0,450,3.6,n/a,2021-06-12T10:18:57Z
2021-06-12 12:24:51,20.2,12.2,1022.6,NNW,338,16.7,8,60,0.0,,,0.0,432,5.7,n/a,2021-06-12T10:24:51Z
2021-06-12 12:25:00,20.2,12.2,1022.6,NNW,339,8,19.3,60,0.0,,,0.0,432,5.2,n/a,2021-06-12T10:25:00Z
2021-06-12 12:34:53,20.4,12.2,1022.7,NNW,338,16.7,7.9,59.5,0.0,,,0.0,889,6.1,n/a,2021-06-12T10:34:53Z
2021-06-12 12:35:03,20.3,12.3,1022.6,NNW,332,8,16.1,60,0.0,,,0.0,889,6,n/a,2021-06-12T10:35:03Z
2021-06-12 12:44:59,20.6,12.2,1022.8,NNW,343,15.8,9.5,58.5,0.0,,,0.0,833,6.5,n/a,2021-06-12T10:44:59Z
2021-06-12 12:45:05,20.7,12.3,1022.8,NNW,338,8,16.1,59,0.0,,,0.0,457,4.6,n/a,2021-06-12T10:45:05Z
2021-06-12 12:54:54,20.7,11.9,1022.8,NNW,338,15.2,8.2,57.2,0.0,,,0.0,889,6.5,n/a,2021-06-12T10:54:54Z
2021-06-12 12:58:50,21,12.4,1022.8,NE,40,13,16.1,57.9,0.0,,,0.0,788,6.4,n/a,2021-06-12T10:58:50Z
2021-06-12 13:04:56,21,12.9,1022.8,NNW,330,9.7,17.7,60.3,0.0,,,0.0,788,6.1,n/a,2021-06-12T11:04:56Z
2021-06-12 13:09:59,21.1,12.8,1022.7,NW,322,16,9.7,59.2,0.0,,,0.0,868,6.6,n/a,2021-06-12T11:09:59Z
2021-06-12 13:10:00,21.1,13,1022.7,NNW,348,4.8,16.1,60,0.0,,,0.0,868,6.4,n/a,2021-06-12T11:10:00Z
2021-06-12 13:17:56,21.3,12.7,1022.8,SSW,194,16.7,7.6,58,0.0,,,0.0,791,6.5,n/a,2021-06-12T11:17:56Z
2021-06-12 13:22:48,21.7,12.8,1022.7,West,264,16.1,8,57,0.0,,,0.0,928,6.2,n/a,2021-06-12T11:22:48Z
2021-06-12 13:29:51,21.5,12.6,1022.7,ENE,68,17.2,7.7,56.6,0.0,,,0.0,928,6.9,n/a,2021-06-12T11:29:51Z
2021-06-12 13:30:02,21.8,12.6,1022.7,NNE,20,8,19.3,56,0.0,,,0.0,721,6,n/a,2021-06-12T11:30:02Z
2021-06-12 13:39:47,21,12.6,1022.8,North,0,18.5,8,58.6,0.0,,,0.0,721,6,n/a,2021-06-12T11:39:47Z
2021-06-12 13:40:04,21.3,12.4,1022.7,North,1,8,19.3,57,0.0,,,0.0,274,3.6,n/a,2021-06-12T11:40:04Z
2021-06-12 13:48:42,20.9,12.6,1022.9,North,8,20.8,9.2,59,0.0,,,0.0,661,6.2,n/a,2021-06-12T11:48:42Z
2021-06-12 13:54:53,21.2,12.9,1022.9,North,349,18.5,11.3,59,0.0,,,0.0,995,7.1,n/a,2021-06-12T11:54:53Z
2021-06-12 13:55:00,21.1,12.8,1022.9,NNW,338,9.7,24.1,59,0.0,,,0.0,902,5.1,n/a,2021-06-12T11:55:00Z
2021-06-12 14:04:54,21,12.6,1023.1,NW,313,17.2,7.1,59,0.0,,,0.0,327,5.6,n/a,2021-06-12T12:04:54Z
2021-06-12 14:09:51,20.7,12.7,1023.1,NE,49,14.5,22.5,60,0.0,,,0.0,448,4.4,n/a,2021-06-12T12:09:51Z
2021-06-12 14:10:00,20.9,12.6,1023.0,NNW,341,4.8,14.5,59,0.0,,,0.0,448,4.4,n/a,2021-06-12T12:10:00Z
2021-06-12 14:19:57,21.2,13.2,1023.1,North,352,20.9,8,60,0.0,,,0.0,1201,6.9,n/a,2021-06-12T12:19:57Z
2021-06-12 14:24:58,22,13.6,1023.0,North,4,19.1,25.7,59,0.0,,,0.0,1167,6.9,n/a,2021-06-12T12:24:58Z
2021-06-12 14:25:00,21.3,13.2,1023.0,North,357,8,20.9,60,0.0,,,0.0,1167,6.7,n/a,2021-06-12T12:25:00Z
2021-06-12 14:34:57,21.1,13.2,1023.1,North,355,19.7,20.9,60.9,0.0,,,0.0,1167,6.5,n/a,2021-06-12T12:34:57Z
2021-06-12 14:39:54,20.3,13,1023.2,NNE,28,20.1,20.9,62.9,0.0,,,0.0,378,5.2,n/a,2021-06-12T12:39:54Z
2021-06-12 14:40:00,21.9,14.1,1023.2,North,7,9.7,20.9,61,0.0,,,0.0,378,5.2,n/a,2021-06-12T12:40:00Z
2021-06-12 14:48:58,20.8,13.3,1023.4,North,1,20.7,20.9,62,0.0,,,0.0,1041,4.7,n/a,2021-06-12T12:48:58Z
2021-06-12 14:54:55,20.7,13.1,1023.4,NNE,20,20.1,20.9,62,0.0,,,0.0,519,4.2,n/a,2021-06-12T12:54:55Z
2021-06-12 14:58:54,20.6,13,1023.5,North,11,21.6,14.8,62,0.0,,,0.0,517,5,n/a,2021-06-12T12:58:54Z
2021-06-12 15:00:48,20.7,13.1,1023.5,North,355,26.6,14.3,62,0.0,,,0.0,517,5.5,n/a,2021-06-12T13:00:48Z
2021-06-12 15:07:56,21,13.4,1023.5,NNW,331,25.9,14.2,62,0.0,,,0.0,856,6.7,n/a,2021-06-12T13:07:56Z
2021-06-12 15:10:00,20.8,13.3,1023.5,NNW,330,12.9,25.7,62,0.0,,,0.0,856,3.6,n/a,2021-06-12T13:10:00Z
2021-06-12 15:27:22,21.3,13.2,1023.6,NNW,330,20.1,20.9,60.1,0.0,,,0.0,837,5.8,n/a,2021-06-12T13:27:22Z
2021-06-12 15:33:52,21.6,12.9,1023.7,North,5,20.4,7.1,58,0.0,,,0.0,831,5.5,n/a,2021-06-12T13:33:52Z
2021-06-12 15:39:47,21.7,12.9,1023.7,NNE,12,16.8,7.4,57.2,0.0,,,0.0,835,5.6,n/a,2021-06-12T13:39:47Z
2021-06-12 15:40:00,21.6,13,1023.7,NNW,330,8,20.9,58,0.0,,,0.0,824,5.5,n/a,2021-06-12T13:40:00Z
2021-06-12 15:48:54,21.8,13,1023.8,WSW,245,16.7,7.7,57.3,0.0,,,0.0,828,5.5,n/a,2021-06-12T13:48:54Z
2021-06-12 15:54:54,22,12.9,1023.8,WNW,294,16.7,8.5,55.9,0.0,,,0.0,802,5.2,n/a,2021-06-12T13:54:54Z
2021-06-12 15:58:58,22,12.8,1023.9,NNW,341,10.4,16.1,56,0.0,,,0.0,828,5,n/a,2021-06-12T13:58:58Z
2021-06-12 16:03:58,21.7,12.6,1024.0,North,8,15.4,11.3,56,0.0,,,0.0,867,5,n/a,2021-06-12T14:03:58Z
2021-06-12 16:08:50,21.6,12.9,1023.9,North,359,16.4,16.1,57.9,0.0,,,0.0,805,4.8,n/a,2021-06-12T14:08:50Z
2021-06-12 16:12:13,21.5,12.6,1023.9,North,359,16.4,19.3,57,0.0,,,0.0,773,4.7,n/a,2021-06-12T14:12:13Z
2021-06-12 16:19:58,21.5,12.6,1023.9,NW,319,16.2,16.1,57,0.0,,,0.0,772,4.6,n/a,2021-06-12T14:19:58Z
2021-06-12 16:24:57,21.4,12.9,1024.1,North,351,20.6,10.1,58.6,0.0,,,0.0,805,4.4,n/a,2021-06-12T14:24:57Z
2021-06-12 16:25:01,21.4,12.8,1024.0,North,351,9.7,22.5,58,0.0,,,0.0,802,4.4,n/a,2021-06-12T14:25:01Z
2021-06-12 16:33:59,21.4,12.8,1024.1,WNW,299,22.2,10.3,58.1,0.0,,,0.0,759,4.1,n/a,2021-06-12T14:33:59Z
2021-06-12 16:39:58,21.3,12.5,1024.2,NNW,339,17.5,22.5,57.5,0.0,,,0.0,737,4.1,n/a,2021-06-12T14:39:58Z
2021-06-12 16:42:56,21.3,12.4,1024.1,North,355,18.5,7.7,57,0.0,,,0.0,740,4,n/a,2021-06-12T14:42:56Z
2021-06-12 16:48:07,21.6,12.7,1024.2,NE,50,16.4,19.3,57,0.0,,,0.0,696,3.8,n/a,2021-06-12T14:48:07Z
2021-06-12 16:54:53,21.7,12.6,1024.2,NNW,340,16.4,16.1,56,0.0,,,0.0,696,3.8,n/a,2021-06-12T14:54:53Z
2021-06-12 16:55:00,21.4,12.6,1024.1,North,357,8,19.3,57,0.0,,,0.0,654,3.5,n/a,2021-06-12T14:55:00Z
2021-06-12 17:04:52,21.2,12.3,1024.5,NNW,343,18.2,19.3,57,0.0,,,0.0,663,3.5,n/a,2021-06-12T15:04:52Z
2021-06-12 17:09:54,21.2,12.1,1024.5,NNW,343,17.8,19.3,56.1,0.0,,,0.0,649,3.3,n/a,2021-06-12T15:09:54Z
2021-06-12 17:13:58,21.1,12,1024.5,NW,312,15.9,10.1,55.8,0.0,,,0.0,626,3.2,n/a,2021-06-12T15:13:58Z
2021-06-12 17:19:02,21.1,12,1024.5,NNE,16,24,29,56,0.0,,,0.0,622,3.1,n/a,2021-06-12T15:19:02Z
2021-06-12 17:24:57,20.8,11.4,1024.5,North,358,20.6,10.9,55,0.0,,,0.0,606,3,n/a,2021-06-12T15:24:57Z
2021-06-12 17:25:00,20.8,11.5,1024.5,North,5,9.7,25.7,55,0.0,,,0.0,598,2.9,n/a,2021-06-12T15:25:00Z
2021-06-12 17:34:51,20.9,11.2,1024.6,North,356,19.4,10.9,54,0.0,,,0.0,589,2.8,n/a,2021-06-12T15:34:51Z
2021-06-12 17:39:52,20.8,11.2,1024.7,NNE,12,22.2,20.9,54,0.0,,,0.0,580,2.7,n/a,2021-06-12T15:39:52Z
2021-06-12 17:43:54,20.8,10.9,1024.7,North,350,18.5,12.2,53,0.0,,,0.0,568,2.6,n/a,2021-06-12T15:43:54Z
2021-06-12 17:48:55,20.8,10.6,1024.7,North,4,19,22.5,52.1,0.0,,,0.0,557,2.5,n/a,2021-06-12T15:48:55Z
2021-06-12 17:54:54,20.5,10.8,1024.7,NNW,328,18,10.6,53.5,0.0,,,0.0,547,2.4,n/a,2021-06-12T15:54:54Z
2021-06-12 17:59:54,20.5,10.9,1024.7,NE,53,18.1,19.3,53.9,0.0,,,0.0,533,2.2,n/a,2021-06-12T15:59:54Z
2021-06-12 18:04:55,20.5,11.1,1024.7,WNW,284,18.3,19.3,54.9,0.0,,,0.0,517,2.1,n/a,2021-06-12T16:04:55Z
2021-06-12 18:05:05,20.5,10.9,1024.7,North,355,9.7,19.3,54,0.0,,,0.0,506,2,n/a,2021-06-12T16:05:05Z
2021-06-12 18:12:26,20.5,11.2,1024.7,NW,304,20.8,20.9,55,0.0,,,0.0,504,2,n/a,2021-06-12T16:12:26Z
2021-06-12 18:18:51,20.6,11.5,1024.7,WSW,248,18.9,9.2,56,0.0,,,0.0,476,1.8,n/a,2021-06-12T16:18:51Z
2021-06-12 18:20:09,20.6,11.2,1024.6,NNW,334,9.7,24.1,55,0.0,,,0.0,469,1.7,n/a,2021-06-12T16:20:09Z
2021-06-12 18:28:57,20.5,11.5,1024.7,NNW,330,18.5,9,56.3,0.0,,,0.0,469,1.7,n/a,2021-06-12T16:28:57Z
2021-06-12 18:34:54,20.3,11.3,1024.7,NNW,328,20.4,9.2,56.3,0.0,,,0.0,432,1.5,n/a,2021-06-12T16:34:54Z
2021-06-12 18:39:57,20.2,11.2,1024.7,NNW,337,19.5,20.9,56,0.0,,,0.0,427,1.5,n/a,2021-06-12T16:39:57Z
2021-06-12 18:43:58,20.3,12,1024.7,North,352,19,9.7,59,0.0,,,0.0,401,1.3,n/a,2021-06-12T16:43:58Z
2021-06-12 18:49:00,20.4,12.3,1024.7,NNE,21,17.9,20.9,59.9,0.0,,,0.0,399,1.3,n/a,2021-06-12T16:49:00Z
2021-06-12 18:54:56,20.1,12.3,1024.9,North,7,19.2,9,61,0.0,,,0.0,373,1.2,n/a,2021-06-12T16:54:56Z
2021-06-12 18:55:00,20.2,12.2,1024.7,North,353,9.7,19.3,60,0.0,,,0.0,359,1.2,n/a,2021-06-12T16:55:00Z
2021-06-12 19:04:54,19.9,12.4,1024.9,NNW,327,16.5,16.1,61.9,0.0,,,0.0,362,1.1,n/a,2021-06-12T17:04:54Z
2021-06-12 19:08:53,19.9,12.6,1025.0,North,358,16.7,16.1,62.9,0.0,,,0.0,339,1,n/a,2021-06-12T17:08:53Z
2021-06-12 19:14:52,19.9,12.4,1025.0,North,355,20.1,20.9,62,0.0,,,0.0,336,1,n/a,2021-06-12T17:14:52Z
2021-06-12 19:15:01,19.9,12.7,1024.9,North,353,9.7,20.9,63,0.0,,,0.0,290,0.9,n/a,2021-06-12T17:15:01Z
2021-06-12 19:24:52,19.6,11.6,1025.0,NNE,33,20,20.9,60.1,0.0,,,0.0,292,0.9,n/a,2021-06-12T17:24:52Z
2021-06-12 19:25:03,19.8,12.3,1025.0,North,6,9.7,20.9,62,0.0,,,0.0,309,0.8,n/a,2021-06-12T17:25:03Z
2021-06-12 19:33:53,19.2,11.4,1025.2,NNW,345,19.4,10.1,60.9,0.0,,,0.0,309,0.8,n/a,2021-06-12T17:33:53Z
2021-06-12 19:38:58,19,11.7,1025.3,NNW,346,19.3,20.9,62.7,0.0,,,0.0,301,0.7,n/a,2021-06-12T17:38:58Z
2021-06-12 19:40:09,19,11.6,1025.2,NNW,335,11.3,22.5,62,0.0,,,0.0,221,0.7,n/a,2021-06-12T17:40:09Z
2021-06-12 19:48:01,18.7,11.8,1025.4,North,9,22.2,10.6,64,0.0,,,0.0,84,0.5,n/a,2021-06-12T17:48:01Z
2021-06-12 19:50:03,18.8,11.9,1025.3,North,354,11.3,22.5,64,0.0,,,0.0,86,0.5,n/a,2021-06-12T17:50:03Z
2021-06-12 19:58:52,18.7,11.6,1025.5,NNW,327,16.7,16.1,63.1,0.0,,,0.0,84,0.5,n/a,2021-06-12T17:58:52Z
2021-06-12 20:03:52,18.6,11.5,1025.5,NW,326,17.2,19.3,63.1,0.0,,,0.0,70,0,n/a,2021-06-12T18:03:52Z
2021-06-12 20:09:54,18.5,11.4,1025.6,NNW,331,20.5,20.9,63.6,0.0,,,0.0,67,0,n/a,2021-06-12T18:09:54Z
2021-06-12 20:10:03,18.5,11.6,1025.6,NNW,343,12.9,20.9,64,0.0,,,0.0,67,0,n/a,2021-06-12T18:10:03Z
2021-06-12 20:19:54,18.4,11.6,1025.6,NNW,343,17.3,20.9,64.7,0.0,,,0.0,149,0,n/a,2021-06-12T18:19:54Z
2021-06-12 20:20:00,18.4,11.4,1025.6,NNW,337,11.3,14.5,64,0.0,,,0.0,88,0,n/a,2021-06-12T18:20:00Z
2021-06-12 20:28:52,18.1,11.5,1025.6,North,5,14.6,14.5,65,0.0,,,0.0,123,0,n/a,2021-06-12T18:28:52Z
2021-06-12 20:30:01,18.2,11.5,1025.6,NNW,342,8,14.5,65,0.0,,,0.0,51,0,n/a,2021-06-12T18:30:01Z
2021-06-12 20:38:58,18,11.5,1025.8,North,1,10.8,9.7,66,0.0,,,0.0,53,0,n/a,2021-06-12T18:38:58Z
2021-06-12 20:40:01,18,11.6,1025.7,North,350,8,11.3,66,0.0,,,0.0,54,0,n/a,2021-06-12T18:40:01Z
2021-06-12 20:49:56,17.8,11.5,1026.0,North,7,11.3,11.3,66.5,0.0,,,0.0,51,0,n/a,2021-06-12T18:49:56Z
2021-06-12 20:53:56,17.7,11.5,1026.0,NNE,21,16.1,10.1,66.9,0.0,,,0.0,42,0,n/a,2021-06-12T18:53:56Z
2021-06-12 20:55:35,17.7,11.4,1026.0,NNE,28,16.5,17.7,67,0.0,,,0.0,44,0,n/a,2021-06-12T18:55:35Z
2021-06-12 21:04:58,17.5,11.1,1026.1,North,353,16.6,16.1,66,0.0,,,0.0,47,0,n/a,2021-06-12T19:04:58Z
2021-06-12 21:05:00,17.6,11.2,1026.0,North,11,9.7,16.1,66,0.0,,,0.0,37,0,n/a,2021-06-12T19:05:00Z
2021-06-12 21:10:00,17.6,11.2,1026.1,North,11,9.7,16.1,66,0.0,,,0.0,37,0,n/a,2021-06-12T19:10:00Z
2021-06-12 21:17:55,17.2,11.1,1026.1,North,0,14.8,6.8,67,0.0,,,0.0,28,0,n/a,2021-06-12T19:17:55Z
2021-06-12 21:24:53,17.1,10.9,1026.2,NNW,347,9.2,5.8,67,0.0,,,0.0,26,0,n/a,2021-06-12T19:24:53Z
2021-06-12 21:25:00,17.1,10.9,1026.2,North,358,4.8,14.5,67,0.0,,,0.0,19,0,n/a,2021-06-12T19:25:00Z
2021-06-12 21:34:55,17,10.8,1026.2,NW,317,9.1,9.7,67,0.0,,,0.0,19,0,n/a,2021-06-12T19:34:55Z
2021-06-12 21:38:55,16.6,10.5,1026.3,NNW,336,9.4,9.7,67,0.0,,,0.0,19,0,n/a,2021-06-12T19:38:55Z
2021-06-12 21:44:53,16.5,10.3,1026.3,NNW,343,13,3.9,67,0.0,,,0.0,12,0,n/a,2021-06-12T19:44:53Z
2021-06-12 21:48:50,16.4,10.4,1026.4,NNE,19,7.3,14.5,67.9,0.0,,,0.0,11,0,n/a,2021-06-12T19:48:50Z
2021-06-12 21:54:58,16.2,10.3,1026.5,NNW,346,10.7,4.8,68,0.0,,,0.0,7,0,n/a,2021-06-12T19:54:58Z
2021-06-12 21:55:01,16.3,10.3,1026.4,NNW,348,3.2,14.5,68,0.0,,,0.0,5,0,n/a,2021-06-12T19:55:01Z